Time,TemperatureF,DewpointF,PressureIn,WindDirection,WindDirectionDegrees,WindSpeedMPH,WindSpeedGustMPH,Humidity,HourlyPrecipIn,Conditions,Clouds,dailyrainin,SolarRadiationWatts/m^2,SoftwareType,DateUTC
2013-04-16 00:02:00,47.2,29.0,29.91,NE,48,15.0,17.0,49,0.00,,,0.00,0,Wunderground v.1.15,2013-04-16 05:02:00,
2013-04-16 00:08:00,47.0,28.3,29.92,NE,37,16.0,24.0,48,0.00,,,0.00,0,Wunderground v.1.15,2013-04-16 05:08:00,
2013-04-16 00:14:00,47.0,29.3,29.92,ENE,64,17.0,24.0,50,0.00,,,0.00,0,Wunderground v.1.15,2013-04-16 05:14:00,
2013-04-16 00:20:00,46.7,28.5,29.92,NE,39,16.0,20.0,49,0.00,,,0.00,0,Wunderground v.1.15,2013-04-16 05:20:00,
2013-04-16 00:25:00,46.6,28.4,29.92,ENE,64,16.0,19.0,49,0.00,,,0.00,0,Wunderground v.1.15,2013-04-16 05:25:00,
2013-04-16 00:32:00,46.4,28.3,29.92,ENE,58,16.0,20.0,49,0.00,,,0.00,0,Wunderground v.1.15,2013-04-16 05:32:00,
2013-04-16 00:38:00,46.3,28.7,29.92,ENE,57,16.0,21.0,50,0.00,,,0.00,0,Wunderground v.1.15,2013-04-16 05:38:00,
2013-04-16 00:43:00,46.3,28.7,29.92,ENE,59,18.0,21.0,50,0.00,,,0.00,0,Wunderground v.1.15,2013-04-16 05:43:00,
2013-04-16 00:50:00,46.1,29.0,29.92,NE,52,16.0,18.0,51,0.00,,,0.00,0,Wunderground v.1.15,2013-04-16 05:50:00,
2013-04-16 00:55:00,46.0,28.9,29.92,NE,48,17.0,22.0,51,0.00,,,0.00,0,Wunderground v.1.15,2013-04-16 05:55:00,
2013-04-16 01:02:00,45.8,30.5,29.92,NE,52,16.0,23.0,55,0.00,,,0.00,0,Wunderground v.1.15,2013-04-16 06:02:00,
2013-04-16 01:08:00,45.8,29.2,29.92,NE,42,16.0,18.0,52,0.00,,,0.00,0,Wunderground v.1.15,2013-04-16 06:08:00,
2013-04-16 01:14:00,45.8,29.6,29.92,NE,37,16.0,18.0,53,0.00,,,0.00,0,Wunderground v.1.15,2013-04-16 06:14:00,
2013-04-16 01:19:00,45.9,29.7,29.92,NE,56,15.0,18.0,53,0.00,,,0.00,0,Wunderground v.1.15,2013-04-16 06:19:00,
2013-04-16 01:26:00,46.1,29.9,29.92,NE,38,16.0,20.0,53,0.00,,,0.00,0,Wunderground v.1.15,2013-04-16 06:26:00,
2013-04-16 01:32:00,46.1,29.9,29.92,ENE,62,16.0,20.0,53,0.00,,,0.00,0,Wunderground v.1.15,2013-04-16 06:32:00,
2013-04-16 01:38:00,46.1,29.9,29.92,NE,53,15.0,17.0,53,0.00,,,0.00,0,Wunderground v.1.15,2013-04-16 06:38:00,
2013-04-16 01:44:00,46.1,29.9,29.92,ENE,62,15.0,17.0,53,0.00,,,0.00,0,Wunderground v.1.15,2013-04-16 06:44:00,
2013-04-16 01:50:00,46.1,30.4,29.92,NE,44,15.0,18.0,54,0.00,,,0.00,0,Wunderground v.1.15,2013-04-16 06:50:00,
2013-04-16 01:56:00,46.1,30.4,29.92,NE,35,16.0,16.0,54,0.00,,,0.00,0,Wunderground v.1.15,2013-04-16 06:56:00,
2013-04-16 02:02:00,46.2,30.5,29.92,NNE,32,16.0,26.0,54,0.00,,,0.00,0,Wunderground v.1.15,2013-04-16 07:02:00,
2013-04-16 02:08:00,46.2,30.5,29.93,NE,37,15.0,26.0,54,0.00,,,0.00,0,Wunderground v.1.15,2013-04-16 07:08:00,
2013-04-16 02:14:00,46.2,30.5,29.92,NE,56,15.0,26.0,54,0.00,,,0.00,0,Wunderground v.1.15,2013-04-16 07:14:00,
2013-04-16 02:19:00,46.2,30.5,29.92,NE,51,14.0,26.0,54,0.00,,,0.00,0,Wunderground v.1.15,2013-04-16 07:19:00,
2013-04-16 02:26:00,46.2,30.5,29.92,NE,43,17.0,26.0,54,0.00,,,0.00,0,Wunderground v.1.15,2013-04-16 07:26:00,
2013-04-16 02:32:00,46.2,30.5,29.93,NE,41,18.0,26.0,54,0.00,,,0.00,0,Wunderground v.1.15,2013-04-16 07:32:00,
2013-04-16 02:40:00,46.2,30.9,29.93,NE,38,16.0,26.0,55,0.00,,,0.00,0,Wunderground v.1.15,2013-04-16 07:40:00,
2013-04-16 02:46:00,46.1,30.4,29.93,NE,39,17.0,17.0,54,0.00,,,0.00,0,Wunderground v.1.15,2013-04-16 07:46:00,
2013-04-16 02:52:00,46.2,30.9,29.93,NNE,33,16.0,26.0,55,0.00,,,0.00,0,Wunderground v.1.15,2013-04-16 07:52:00,
2013-04-16 02:57:00,46.1,30.8,29.93,NNE,31,16.0,26.0,55,0.00,,,0.00,0,Wunderground v.1.15,2013-04-16 07:57:00,
2013-04-16 03:04:00,46.0,30.7,29.92,NE,55,18.0,26.0,55,0.00,,,0.00,0,Wunderground v.1.15,2013-04-16 08:04:00,
2013-04-16 03:09:00,45.9,30.6,29.93,NNE,30,18.0,26.0,55,0.00,,,0.00,0,Wunderground v.1.15,2013-04-16 08:09:00,
2013-04-16 03:16:00,45.8,31.0,29.92,ENE,74,16.0,26.0,56,0.00,,,0.00,0,Wunderground v.1.15,2013-04-16 08:16:00,
2013-04-16 03:22:00,45.8,31.0,29.93,NE,47,15.0,26.0,56,0.00,,,0.00,0,Wunderground v.1.15,2013-04-16 08:22:00,
2013-04-16 03:28:00,45.8,31.0,29.93,NE,46,17.0,26.0,56,0.00,,,0.00,0,Wunderground v.1.15,2013-04-16 08:28:00,
2013-04-16 03:34:00,45.7,30.9,29.93,NE,39,18.0,26.0,56,0.00,,,0.00,0,Wunderground v.1.15,2013-04-16 08:34:00,
2013-04-16 03:40:00,45.7,30.9,29.93,NE,39,18.0,26.0,56,0.00,,,0.00,0,Wunderground v.1.15,2013-04-16 08:40:00,
2013-04-16 03:45:00,45.7,30.9,29.93,NE,43,18.0,26.0,56,0.00,,,0.00,0,Wunderground v.1.15,2013-04-16 08:45:00,
2013-04-16 03:52:00,45.7,31.3,29.94,NE,37,18.0,26.0,57,0.00,,,0.00,0,Wunderground v.1.15,2013-04-16 08:52:00,
2013-04-16 03:58:00,45.7,30.9,29.93,ENE,64,16.0,26.0,56,0.00,,,0.00,0,Wunderground v.1.15,2013-04-16 08:58:00,
2013-04-16 04:03:00,45.7,30.9,29.93,NNE,29,18.0,26.0,56,0.00,,,0.00,0,Wunderground v.1.15,2013-04-16 09:03:00,
2013-04-16 04:10:00,45.6,30.8,29.93,NE,39,18.0,30.0,56,0.00,,,0.00,0,Wunderground v.1.15,2013-04-16 09:10:00,
2013-04-16 04:16:00,45.6,30.8,29.94,NNE,31,20.0,26.0,56,0.00,,,0.00,0,Wunderground v.1.15,2013-04-16 09:16:00,
2013-04-16 04:22:00,45.5,30.7,29.94,NE,50,20.0,26.0,56,0.00,,,0.00,0,Wunderground v.1.15,2013-04-16 09:22:00,
2013-04-16 04:28:00,45.5,30.7,29.94,NNE,28,17.0,26.0,56,0.00,,,0.00,0,Wunderground v.1.15,2013-04-16 09:28:00,
2013-04-16 04:34:00,45.4,30.6,29.94,NE,36,16.0,26.0,56,0.00,,,0.00,0,Wunderground v.1.15,2013-04-16 09:34:00,
2013-04-16 04:40:00,45.4,30.6,29.95,NE,37,19.0,26.0,56,0.00,,,0.00,0,Wunderground v.1.15,2013-04-16 09:40:00,
2013-04-16 04:46:00,45.4,30.6,29.95,NE,47,17.0,28.0,56,0.00,,,0.00,0,Wunderground v.1.15,2013-04-16 09:46:00,
2013-04-16 04:52:00,45.4,30.6,29.95,NE,36,18.0,28.0,56,0.00,,,0.00,0,Wunderground v.1.15,2013-04-16 09:52:00,
2013-04-16 04:58:00,45.3,30.5,29.95,NE,47,18.0,25.0,56,0.00,,,0.00,0,Wunderground v.1.15,2013-04-16 09:58:00,
2013-04-16 05:03:00,45.3,30.5,29.95,NE,39,19.0,26.0,56,0.00,,,0.00,0,Wunderground v.1.15,2013-04-16 10:03:00,
2013-04-16 05:10:00,45.3,30.5,29.94,NE,52,19.0,26.0,56,0.00,,,0.00,0,Wunderground v.1.15,2013-04-16 10:10:00,
2013-04-16 05:18:00,45.3,30.1,29.95,NE,43,18.0,26.0,55,0.00,,,0.00,0,Wunderground v.1.15,2013-04-16 10:18:00,
2013-04-16 05:23:00,45.3,30.5,29.96,NE,35,17.0,26.0,56,0.00,,,0.00,0,Wunderground v.1.15,2013-04-16 10:23:00,
2013-04-16 05:30:00,45.3,30.5,29.98,NNE,23,17.0,26.0,56,0.00,,,0.00,0,Wunderground v.1.15,2013-04-16 10:30:00,
2013-04-16 05:36:00,45.3,30.5,29.98,NE,39,17.0,17.0,56,0.00,,,0.00,0,Wunderground v.1.15,2013-04-16 10:36:00,
2013-04-16 05:42:00,45.3,31.0,29.98,NNE,16,16.0,26.0,57,0.00,,,0.00,0,Wunderground v.1.15,2013-04-16 10:42:00,
2013-04-16 05:48:00,45.2,30.4,29.98,NNE,33,18.0,26.0,56,0.00,,,0.00,0,Wunderground v.1.15,2013-04-16 10:48:00,
2013-04-16 05:54:00,45.2,30.9,29.98,NNE,32,18.0,26.0,57,0.00,,,0.00,0,Wunderground v.1.15,2013-04-16 10:54:00,
2013-04-16 06:00:00,45.2,30.9,29.97,NNE,33,18.0,26.0,57,0.00,,,0.00,0,Wunderground v.1.15,2013-04-16 11:00:00,
2013-04-16 06:06:00,45.1,31.2,29.98,NNE,33,18.0,18.0,58,0.00,,,0.00,0,Wunderground v.1.15,2013-04-16 11:06:00,
2013-04-16 06:11:00,45.1,31.2,29.98,NE,49,18.0,26.0,58,0.00,,,0.00,0,Wunderground v.1.15,2013-04-16 11:11:00,
2013-04-16 06:18:00,45.1,31.2,29.98,NE,34,18.0,26.0,58,0.00,,,0.00,0,Wunderground v.1.15,2013-04-16 11:18:00,
2013-04-16 06:23:00,45.0,31.1,29.99,NE,39,19.0,26.0,58,0.00,,,0.00,0,Wunderground v.1.15,2013-04-16 11:23:00,
2013-04-16 06:30:00,45.0,31.5,30.00,NE,39,17.0,26.0,59,0.00,,,0.00,0,Wunderground v.1.15,2013-04-16 11:30:00,
2013-04-16 06:35:00,44.8,32.2,30.00,NNE,29,16.0,16.0,61,0.00,,,0.00,0,Wunderground v.1.15,2013-04-16 11:35:00,
2013-04-16 06:42:00,44.6,32.0,30.00,NNE,31,16.0,26.0,61,0.00,,,0.00,0,Wunderground v.1.15,2013-04-16 11:42:00,
2013-04-16 06:48:00,44.5,31.9,30.00,NE,50,19.0,19.0,61,0.00,,,0.00,0,Wunderground v.1.15,2013-04-16 11:48:00,
2013-04-16 06:54:00,44.5,32.3,30.00,NE,46,21.0,26.0,62,0.00,,,0.00,0,Wunderground v.1.15,2013-04-16 11:54:00,
2013-04-16 06:59:00,44.5,32.3,30.00,NE,42,18.0,26.0,62,0.00,,,0.00,0,Wunderground v.1.15,2013-04-16 11:59:00,
2013-04-16 07:06:00,44.5,32.3,30.01,ENE,61,18.0,26.0,62,0.00,,,0.00,0,Wunderground v.1.15,2013-04-16 12:06:00,
2013-04-16 07:12:00,44.5,32.7,30.01,NE,46,17.0,26.0,63,0.00,,,0.00,0,Wunderground v.1.15,2013-04-16 12:12:00,
2013-04-16 07:18:00,44.4,33.0,30.01,NE,38,14.0,26.0,64,0.00,,,0.00,5,Wunderground v.1.15,2013-04-16 12:18:00,
2013-04-16 07:24:00,44.3,32.5,30.01,NE,34,16.0,26.0,63,0.00,,,0.00,5,Wunderground v.1.15,2013-04-16 12:24:00,
2013-04-16 07:30:00,44.3,32.9,30.01,NE,38,18.0,26.0,64,0.00,,,0.00,9,Wunderground v.1.15,2013-04-16 12:30:00,
2013-04-16 07:36:00,44.4,33.0,30.01,NE,50,20.0,26.0,64,0.00,,,0.00,11,Wunderground v.1.15,2013-04-16 12:36:00,
2013-04-16 07:42:00,44.4,32.6,30.01,NNE,33,21.0,26.0,63,0.00,,,0.00,12,Wunderground v.1.15,2013-04-16 12:42:00,
2013-04-16 07:47:00,44.5,32.7,30.01,ENE,68,21.0,26.0,63,0.00,,,0.00,14,Wunderground v.1.15,2013-04-16 12:47:00,
2013-04-16 07:53:00,44.5,33.1,30.01,NE,49,20.0,26.0,64,0.00,,,0.00,18,Wunderground v.1.15,2013-04-16 12:53:00,
2013-04-16 08:00:00,44.4,33.0,30.01,NE,50,21.0,26.0,64,0.00,,,0.00,21,Wunderground v.1.15,2013-04-16 13:00:00,
2013-04-16 08:06:00,44.4,33.0,30.01,ENE,60,22.0,26.0,64,0.00,,,0.00,19,Wunderground v.1.15,2013-04-16 13:06:00,
2013-04-16 08:12:00,44.4,33.0,30.01,ENE,60,22.0,26.0,64,0.00,,,0.00,21,Wunderground v.1.15,2013-04-16 13:12:00,
2013-04-16 08:18:00,44.5,32.7,30.02,NE,48,21.0,26.0,63,0.00,,,0.00,23,Wunderground v.1.15,2013-04-16 13:18:00,
2013-04-16 08:24:00,44.5,32.7,30.02,NE,48,22.0,29.0,63,0.00,,,0.00,32,Wunderground v.1.15,2013-04-16 13:24:00,
2013-04-16 08:30:00,44.5,33.1,30.02,NE,51,21.0,26.0,64,0.00,,,0.00,25,Wunderground v.1.15,2013-04-16 13:30:00,
2013-04-16 08:36:00,44.4,33.4,30.02,NE,54,19.0,26.0,65,0.00,,,0.00,25,Wunderground v.1.15,2013-04-16 13:36:00,
2013-04-16 08:41:00,44.4,33.4,30.02,NE,50,19.0,26.0,65,0.00,,,0.00,33,Wunderground v.1.15,2013-04-16 13:41:00,
2013-04-16 08:47:00,44.4,33.4,30.02,NE,46,20.0,20.0,65,0.00,,,0.00,37,Wunderground v.1.15,2013-04-16 13:47:00,
2013-04-16 08:54:00,44.5,33.8,30.02,NNE,30,18.0,26.0,66,0.00,,,0.00,40,Wunderground v.1.15,2013-04-16 13:54:00,
2013-04-16 09:00:00,44.5,33.8,30.02,NE,48,17.0,26.0,66,0.00,,,0.00,62,Wunderground v.1.15,2013-04-16 14:00:00,
2013-04-16 09:05:00,44.6,33.9,30.03,NE,46,17.0,17.0,66,0.00,,,0.00,49,Wunderground v.1.15,2013-04-16 14:05:00,
2013-04-16 09:12:00,44.6,33.6,30.04,NE,44,19.0,27.0,65,0.00,,,0.00,44,Wunderground v.1.15,2013-04-16 14:12:00,
2013-04-16 09:18:00,44.6,33.9,30.04,NE,35,17.0,26.0,66,0.00,,,0.00,51,Wunderground v.1.15,2013-04-16 14:18:00,
2013-04-16 09:24:00,44.6,33.9,30.05,NE,37,15.0,26.0,66,0.00,,,0.00,58,Wunderground v.1.15,2013-04-16 14:24:00,
2013-04-16 09:30:00,44.7,33.6,30.05,NE,36,16.0,26.0,65,0.00,,,0.00,60,Wunderground v.1.15,2013-04-16 14:30:00,
2013-04-16 09:36:00,44.7,33.6,30.05,NE,53,17.0,17.0,65,0.00,,,0.00,69,Wunderground v.1.15,2013-04-16 14:36:00,
2013-04-16 09:42:00,44.7,34.0,30.04,NE,51,18.0,26.0,66,0.00,,,0.00,83,Wunderground v.1.15,2013-04-16 14:42:00,
2013-04-16 09:48:00,44.8,34.1,30.04,NE,50,18.0,26.0,66,0.00,,,0.00,77,Wunderground v.1.15,2013-04-16 14:48:00,
2013-04-16 09:54:00,44.8,34.1,30.05,NE,37,17.0,26.0,66,0.00,,,0.00,77,Wunderground v.1.15,2013-04-16 14:54:00,
2013-04-16 09:59:00,44.9,34.2,30.05,NE,45,16.0,26.0,66,0.00,,,0.00,70,Wunderground v.1.15,2013-04-16 14:59:00,
2013-04-16 10:05:00,44.8,34.1,30.05,NNE,29,17.0,17.0,66,0.00,,,0.00,83,Wunderground v.1.15,2013-04-16 15:05:00,
2013-04-16 10:12:00,44.8,34.1,30.04,NE,46,17.0,26.0,66,0.00,,,0.00,102,Wunderground v.1.15,2013-04-16 15:12:00,
2013-04-16 10:18:00,44.9,34.6,30.05,NNE,21,17.0,26.0,67,0.00,,,0.00,98,Wunderground v.1.15,2013-04-16 15:18:00,
2013-04-16 10:24:00,44.9,34.2,30.05,NE,53,17.0,26.0,66,0.00,,,0.00,83,Wunderground v.1.15,2013-04-16 15:24:00,
2013-04-16 10:30:00,44.8,34.5,30.05,NE,49,18.0,26.0,67,0.00,,,0.00,81,Wunderground v.1.15,2013-04-16 15:30:00,
2013-04-16 10:38:00,44.7,34.4,30.06,NE,40,17.0,26.0,67,0.00,,,0.00,88,Wunderground v.1.15,2013-04-16 15:38:00,
2013-04-16 10:44:00,44.7,34.8,30.06,NE,38,18.0,26.0,68,0.00,,,0.00,88,Wunderground v.1.15,2013-04-16 15:44:00,
2013-04-16 10:50:00,44.6,34.7,30.06,NE,42,18.0,23.0,68,0.00,,,0.00,100,Wunderground v.1.15,2013-04-16 15:50:00,
2013-04-16 10:56:00,44.6,34.3,30.05,ENE,58,19.0,19.0,67,0.00,,,0.00,135,Wunderground v.1.15,2013-04-16 15:56:00,
2013-04-16 11:02:00,44.7,34.8,30.05,NE,41,19.0,26.0,68,0.00,,,0.00,132,Wunderground v.1.15,2013-04-16 16:02:00,
2013-04-16 11:08:00,44.9,34.6,30.05,NNE,22,17.0,26.0,67,0.00,,,0.00,130,Wunderground v.1.15,2013-04-16 16:08:00,
2013-04-16 11:13:00,45.1,35.2,30.06,NE,41,17.0,26.0,68,0.00,,,0.00,163,Wunderground v.1.15,2013-04-16 16:13:00,
2013-04-16 11:20:00,45.0,35.1,30.05,NE,45,18.0,26.0,68,0.00,,,0.00,158,Wunderground v.1.15,2013-04-16 16:20:00,
2013-04-16 11:26:00,45.1,35.5,30.06,ENE,64,17.0,17.0,69,0.00,,,0.00,162,Wunderground v.1.15,2013-04-16 16:26:00,
2013-04-16 11:32:00,45.3,35.7,30.06,NE,49,17.0,26.0,69,0.00,,,0.00,192,Wunderground v.1.15,2013-04-16 16:32:00,
2013-04-16 11:38:00,45.4,35.5,30.06,ENE,73,18.0,26.0,68,0.00,,,0.00,204,Wunderground v.1.15,2013-04-16 16:38:00,
2013-04-16 11:43:00,45.5,35.5,30.06,ENE,69,17.0,26.0,68,0.00,,,0.00,218,Wunderground v.1.15,2013-04-16 16:43:00,
2013-04-16 11:50:00,45.8,35.8,30.06,NE,56,15.0,26.0,68,0.00,,,0.00,211,Wunderground v.1.15,2013-04-16 16:50:00,
2013-04-16 11:55:00,46.0,36.0,30.06,NE,52,16.0,16.0,68,0.00,,,0.00,232,Wunderground v.1.15,2013-04-16 16:55:00,
2013-04-16 12:01:00,46.2,36.2,30.05,ENE,73,15.0,26.0,68,0.00,,,0.00,216,Wunderground v.1.15,2013-04-16 17:01:00,
2013-04-16 12:08:00,46.2,35.8,30.05,NE,53,15.0,26.0,67,0.00,,,0.00,227,Wunderground v.1.15,2013-04-16 17:08:00,
2013-04-16 12:14:00,46.4,36.0,30.05,NE,50,16.0,26.0,67,0.00,,,0.00,253,Wunderground v.1.15,2013-04-16 17:14:00,
2013-04-16 12:20:00,46.7,36.3,30.06,ENE,66,17.0,26.0,67,0.00,,,0.00,234,Wunderground v.1.15,2013-04-16 17:20:00,
2013-04-16 12:26:00,46.8,36.4,30.06,NE,54,16.0,26.0,67,0.00,,,0.00,236,Wunderground v.1.15,2013-04-16 17:26:00,
2013-04-16 12:32:00,46.9,36.5,30.05,ENE,73,15.0,26.0,67,0.00,,,0.00,218,Wunderground v.1.15,2013-04-16 17:32:00,
2013-04-16 12:38:00,47.0,36.2,30.05,NE,37,14.0,26.0,66,0.00,,,0.00,250,Wunderground v.1.15,2013-04-16 17:38:00,
2013-04-16 12:43:00,47.2,36.4,30.05,ENE,58,14.0,26.0,66,0.00,,,0.00,258,Wunderground v.1.15,2013-04-16 17:43:00,
2013-04-16 12:50:00,47.3,36.9,30.05,ENE,58,15.0,26.0,67,0.00,,,0.00,248,Wunderground v.1.15,2013-04-16 17:50:00,
2013-04-16 12:56:00,47.2,36.8,30.05,ENE,73,13.0,26.0,67,0.00,,,0.00,253,Wunderground v.1.15,2013-04-16 17:56:00,
2013-04-16 13:02:00,47.3,36.9,30.05,NNE,31,14.0,26.0,67,0.00,,,0.00,258,Wunderground v.1.15,2013-04-16 18:02:00,
2013-04-16 13:08:00,47.6,37.2,30.05,NE,45,13.0,15.0,67,0.00,,,0.00,239,Wunderground v.1.15,2013-04-16 18:08:00,
2013-04-16 13:14:00,47.7,36.9,30.05,ENE,71,12.0,26.0,66,0.00,,,0.00,251,Wunderground v.1.15,2013-04-16 18:14:00,
2013-04-16 13:19:00,47.8,37.0,30.05,NE,34,12.0,26.0,66,0.00,,,0.00,267,Wunderground v.1.15,2013-04-16 18:19:00,
2013-04-16 13:26:00,48.1,37.3,30.04,NNE,31,14.0,14.0,66,0.00,,,0.00,279,Wunderground v.1.15,2013-04-16 18:26:00,
2013-04-16 13:31:00,48.1,37.3,30.04,ENE,75,15.0,26.0,66,0.00,,,0.00,274,Wunderground v.1.15,2013-04-16 18:31:00,
2013-04-16 13:37:00,48.1,37.3,30.03,NE,41,13.0,26.0,66,0.00,,,0.00,276,Wunderground v.1.15,2013-04-16 18:37:00,
2013-04-16 13:43:00,48.1,37.3,30.03,NE,49,14.0,26.0,66,0.00,,,0.00,290,Wunderground v.1.15,2013-04-16 18:43:00,
2013-04-16 13:50:00,48.1,37.7,30.03,NNE,33,14.0,26.0,67,0.00,,,0.00,290,Wunderground v.1.15,2013-04-16 18:50:00,
2013-04-16 13:56:00,48.2,37.8,30.03,ENE,65,13.0,13.0,67,0.00,,,0.00,283,Wunderground v.1.15,2013-04-16 18:56:00,
2013-04-16 14:02:00,48.3,37.8,30.03,NNE,32,12.0,26.0,67,0.00,,,0.00,294,Wunderground v.1.15,2013-04-16 19:02:00,
2013-04-16 14:08:00,48.6,38.5,30.03,ENE,65,11.0,26.0,68,0.00,,,0.00,301,Wunderground v.1.15,2013-04-16 19:08:00,
2013-04-16 14:14:00,48.8,38.3,30.03,NE,40,12.0,26.0,67,0.00,,,0.00,325,Wunderground v.1.15,2013-04-16 19:14:00,
2013-04-16 14:20:00,48.9,38.0,30.03,NE,34,14.0,26.0,66,0.00,,,0.00,301,Wunderground v.1.15,2013-04-16 19:20:00,
2013-04-16 14:26:00,49.0,38.1,30.03,NE,44,14.0,14.0,66,0.00,,,0.00,327,Wunderground v.1.15,2013-04-16 19:26:00,
2013-04-16 14:32:00,49.0,38.5,30.03,NE,50,12.0,26.0,67,0.00,,,0.00,318,Wunderground v.1.15,2013-04-16 19:32:00,
2013-04-16 14:38:00,49.2,38.3,30.03,NNE,27,13.0,26.0,66,0.00,,,0.00,323,Wunderground v.1.15,2013-04-16 19:38:00,
2013-04-16 14:44:00,49.3,38.4,30.02,NE,48,15.0,26.0,66,0.00,,,0.00,346,Wunderground v.1.15,2013-04-16 19:44:00,
2013-04-16 14:50:00,49.5,38.6,30.02,ENE,68,15.0,26.0,66,0.00,,,0.00,341,Wunderground v.1.15,2013-04-16 19:50:00,
2013-04-16 14:55:00,49.2,38.7,30.02,NE,52,14.0,14.0,67,0.00,,,0.00,285,Wunderground v.1.15,2013-04-16 19:55:00,
2013-04-16 15:02:00,49.0,38.5,30.02,NE,56,13.0,26.0,67,0.00,,,0.00,320,Wunderground v.1.15,2013-04-16 20:02:00,
2013-04-16 15:08:00,49.1,38.6,30.01,NE,41,13.0,26.0,67,0.00,,,0.00,360,Wunderground v.1.15,2013-04-16 20:08:00,
2013-04-16 15:13:00,49.5,38.6,30.01,ENE,69,14.0,26.0,66,0.00,,,0.00,355,Wunderground v.1.15,2013-04-16 20:13:00,
2013-04-16 15:20:00,49.8,38.9,30.01,NNE,31,14.0,26.0,66,0.00,,,0.00,339,Wunderground v.1.15,2013-04-16 20:20:00,
2013-04-16 15:26:00,49.9,39.0,30.01,ENE,60,14.0,26.0,66,0.00,,,0.00,362,Wunderground v.1.15,2013-04-16 20:26:00,
2013-04-16 15:32:00,49.8,39.3,30.01,NE,40,13.0,26.0,67,0.00,,,0.00,332,Wunderground v.1.15,2013-04-16 20:32:00,
2013-04-16 15:38:00,50.0,39.5,30.01,NNE,29,13.0,26.0,67,0.00,,,0.00,316,Wunderground v.1.15,2013-04-16 20:38:00,
2013-04-16 15:44:00,50.1,39.2,30.01,NE,51,13.0,26.0,66,0.00,,,0.00,316,Wunderground v.1.15,2013-04-16 20:44:00,
2013-04-16 15:50:00,49.9,39.0,30.01,NE,51,13.0,26.0,66,0.00,,,0.00,309,Wunderground v.1.15,2013-04-16 20:50:00,
2013-04-16 15:56:00,49.6,39.1,30.00,NE,41,13.0,26.0,67,0.00,,,0.00,302,Wunderground v.1.15,2013-04-16 20:56:00,
2013-04-16 16:01:00,49.8,39.3,30.00,NNE,12,15.0,26.0,67,0.00,,,0.00,278,Wunderground v.1.15,2013-04-16 21:01:00,
2013-04-16 16:08:00,49.8,38.9,30.00,NE,35,15.0,26.0,66,0.00,,,0.00,294,Wunderground v.1.15,2013-04-16 21:08:00,
2013-04-16 16:14:00,49.6,39.1,30.00,NE,42,14.0,26.0,67,0.00,,,0.00,229,Wunderground v.1.15,2013-04-16 21:14:00,
2013-04-16 16:20:00,49.6,39.5,30.00,NE,54,12.0,26.0,68,0.00,,,0.00,265,Wunderground v.1.15,2013-04-16 21:20:00,
2013-04-16 16:25:00,49.8,39.7,30.00,NE,56,12.0,26.0,68,0.00,,,0.00,239,Wunderground v.1.15,2013-04-16 21:25:00,
2013-04-16 16:32:00,49.5,39.4,30.00,ENE,76,14.0,26.0,68,0.00,,,0.00,260,Wunderground v.1.15,2013-04-16 21:32:00,
2013-04-16 16:38:00,49.3,39.6,30.00,NE,56,14.0,26.0,69,0.00,,,0.00,229,Wunderground v.1.15,2013-04-16 21:38:00,
2013-04-16 16:44:00,49.3,39.6,30.00,NE,39,13.0,26.0,69,0.00,,,0.00,213,Wunderground v.1.15,2013-04-16 21:44:00,
2013-04-16 16:50:00,49.2,39.1,30.00,NE,50,11.0,26.0,68,0.00,,,0.00,162,Wunderground v.1.15,2013-04-16 21:50:00,
2013-04-16 16:56:00,49.2,39.5,30.00,NE,51,13.0,26.0,69,0.00,,,0.00,181,Wunderground v.1.15,2013-04-16 21:56:00,
2013-04-16 17:02:00,49.2,39.1,30.00,NE,46,13.0,26.0,68,0.00,,,0.00,183,Wunderground v.1.15,2013-04-16 22:02:00,
2013-04-16 17:08:00,49.1,39.4,30.00,NNE,33,13.0,16.0,69,0.00,,,0.00,190,Wunderground v.1.15,2013-04-16 22:08:00,
2013-04-16 17:14:00,49.0,39.3,29.99,ENE,58,15.0,26.0,69,0.00,,,0.00,200,Wunderground v.1.15,2013-04-16 22:14:00,
2013-04-16 17:20:00,49.1,39.4,29.99,East,89,13.0,26.0,69,0.00,,,0.00,174,Wunderground v.1.15,2013-04-16 22:20:00,
2013-04-16 17:26:00,49.2,39.5,29.99,NE,50,12.0,26.0,69,0.00,,,0.00,179,Wunderground v.1.15,2013-04-16 22:26:00,
2013-04-16 17:31:00,49.3,39.2,29.99,NNE,32,12.0,26.0,68,0.00,,,0.00,167,Wunderground v.1.15,2013-04-16 22:31:00,
2013-04-16 17:40:00,49.4,39.7,29.99,NE,38,13.0,26.0,69,0.00,,,0.00,148,Wunderground v.1.15,2013-04-16 22:40:00,
2013-04-16 17:45:00,49.5,39.7,30.00,NE,54,11.0,11.0,69,0.00,,,0.00,130,Wunderground v.1.15,2013-04-16 22:45:00,
2013-04-16 17:51:00,49.5,39.7,30.00,NE,45,9.0,26.0,69,0.00,,,0.00,113,Wunderground v.1.15,2013-04-16 22:51:00,
2013-04-16 17:58:00,49.4,39.3,29.99,NE,35,10.0,26.0,68,0.00,,,0.00,111,Wunderground v.1.15,2013-04-16 22:58:00,
2013-04-16 18:04:00,49.4,39.7,29.99,NE,48,11.0,26.0,69,0.00,,,0.00,98,Wunderground v.1.15,2013-04-16 23:04:00,
2013-04-16 18:10:00,49.2,39.5,29.99,ENE,58,12.0,26.0,69,0.00,,,0.00,83,Wunderground v.1.15,2013-04-16 23:10:00,
2013-04-16 18:15:00,48.9,39.5,29.99,NE,54,12.0,12.0,70,0.00,,,0.00,62,Wunderground v.1.15,2013-04-16 23:15:00,
2013-04-16 18:21:00,48.6,39.6,29.99,East,83,10.0,26.0,71,0.00,,,0.00,62,Wunderground v.1.15,2013-04-16 23:21:00,
2013-04-16 18:28:00,48.5,39.5,29.99,East,81,9.0,26.0,71,0.00,,,0.00,60,Wunderground v.1.15,2013-04-16 23:28:00,
2013-04-16 18:34:00,48.4,39.8,29.99,ENE,71,11.0,26.0,72,0.00,,,0.00,56,Wunderground v.1.15,2013-04-16 23:34:00,
2013-04-16 18:40:00,48.2,39.6,30.00,ENE,65,11.0,26.0,72,0.00,,,0.00,47,Wunderground v.1.15,2013-04-16 23:40:00,
2013-04-16 18:46:00,48.1,39.5,29.99,ENE,73,10.0,10.0,72,0.00,,,0.00,46,Wunderground v.1.15,2013-04-16 23:46:00,
2013-04-16 18:52:00,48.1,39.9,29.99,ENE,74,7.0,26.0,73,0.00,,,0.00,46,Wunderground v.1.15,2013-04-16 23:52:00,
2013-04-16 18:58:00,48.1,39.5,29.99,ENE,68,8.0,26.0,72,0.00,,,0.00,37,Wunderground v.1.15,2013-04-16 23:58:00,
2013-04-16 19:04:00,48.0,39.4,29.99,East,79,9.0,26.0,72,0.00,,,0.00,33,Wunderground v.1.15,2013-04-17 00:04:00,
2013-04-16 19:10:00,48.0,39.4,29.99,NE,39,10.0,26.0,72,0.00,,,0.00,23,Wunderground v.1.15,2013-04-17 00:10:00,
2013-04-16 19:16:00,47.7,39.5,29.99,ENE,66,11.0,26.0,73,0.00,,,0.00,21,Wunderground v.1.15,2013-04-17 00:16:00,
2013-04-16 19:22:00,47.5,39.6,29.99,East,87,11.0,26.0,74,0.00,,,0.00,16,Wunderground v.1.15,2013-04-17 00:22:00,
2013-04-16 19:28:00,47.3,39.4,29.99,NE,52,9.0,11.0,74,0.00,,,0.00,16,Wunderground v.1.15,2013-04-17 00:28:00,
2013-04-16 19:33:00,47.2,39.3,29.99,ENE,64,8.0,26.0,74,0.00,,,0.00,5,Wunderground v.1.15,2013-04-17 00:33:00,
2013-04-16 19:40:00,47.1,38.9,29.99,NE,54,8.0,26.0,73,0.00,,,0.00,5,Wunderground v.1.15,2013-04-17 00:40:00,
2013-04-16 19:48:00,47.0,39.1,29.98,ENE,67,9.0,26.0,74,0.00,,,0.00,5,Wunderground v.1.15,2013-04-17 00:48:00,
2013-04-16 19:54:00,46.8,38.9,29.98,ENE,58,11.0,26.0,74,0.00,,,0.00,0,Wunderground v.1.15,2013-04-17 00:54:00,
2013-04-16 20:00:00,46.6,39.4,29.98,ENE,72,10.0,26.0,76,0.00,,,0.00,0,Wunderground v.1.15,2013-04-17 01:00:00,
2013-04-16 20:06:00,46.3,39.1,29.98,ENE,72,10.0,26.0,76,0.00,,,0.00,0,Wunderground v.1.15,2013-04-17 01:06:00,
2013-04-16 20:12:00,46.2,39.4,29.98,ENE,73,9.0,26.0,77,0.00,,,0.00,0,Wunderground v.1.15,2013-04-17 01:12:00,
2013-04-16 20:18:00,46.1,39.3,29.98,ENE,67,11.0,26.0,77,0.00,,,0.00,0,Wunderground v.1.15,2013-04-17 01:18:00,
2013-04-16 20:23:00,45.9,39.1,29.97,ENE,71,11.0,26.0,77,0.00,,,0.00,0,Wunderground v.1.15,2013-04-17 01:23:00,
2013-04-16 20:30:00,45.7,38.9,29.97,ENE,60,10.0,15.0,77,0.00,,,0.00,0,Wunderground v.1.15,2013-04-17 01:30:00,
2013-04-16 20:36:00,45.7,38.9,29.97,East,80,9.0,9.0,77,0.00,,,0.00,0,Wunderground v.1.15,2013-04-17 01:36:00,
2013-04-16 20:41:00,45.8,39.0,29.97,ENE,57,10.0,26.0,77,0.00,,,0.00,0,Wunderground v.1.15,2013-04-17 01:41:00,
2013-04-16 20:47:00,45.7,38.9,29.97,NE,46,12.0,26.0,77,0.00,,,0.00,0,Wunderground v.1.15,2013-04-17 01:47:00,
2013-04-16 20:54:00,45.6,39.1,29.97,East,92,11.0,26.0,78,0.00,,,0.00,0,Wunderground v.1.15,2013-04-17 01:54:00,
2013-04-16 21:00:00,45.5,39.0,29.98,ENE,58,11.0,26.0,78,0.00,,,0.00,0,Wunderground v.1.15,2013-04-17 02:00:00,
2013-04-16 21:06:00,45.4,38.9,29.97,ENE,68,9.0,9.0,78,0.00,,,0.00,0,Wunderground v.1.15,2013-04-17 02:06:00,
2013-04-16 21:11:00,45.4,39.3,29.98,East,85,9.0,26.0,79,0.00,,,0.00,0,Wunderground v.1.15,2013-04-17 02:11:00,
2013-04-16 21:18:00,45.2,39.4,29.99,East,93,11.0,26.0,80,0.00,,,0.00,0,Wunderground v.1.15,2013-04-17 02:18:00,
2013-04-16 21:24:00,45.1,39.3,30.00,NE,54,9.0,26.0,80,0.00,,,0.00,0,Wunderground v.1.15,2013-04-17 02:24:00,
2013-04-16 21:29:00,45.0,39.5,29.99,ENE,64,8.0,26.0,81,0.00,,,0.00,0,Wunderground v.1.15,2013-04-17 02:29:00,
2013-04-16 21:36:00,45.0,39.5,29.99,ENE,68,9.0,26.0,81,0.00,,,0.00,0,Wunderground v.1.15,2013-04-17 02:36:00,
2013-04-16 21:42:00,44.9,39.4,30.00,East,83,10.0,26.0,81,0.00,,,0.00,0,Wunderground v.1.15,2013-04-17 02:42:00,
2013-04-16 21:48:00,44.9,39.4,30.00,ENE,60,9.0,26.0,81,0.00,,,0.00,0,Wunderground v.1.15,2013-04-17 02:48:00,
2013-04-16 21:54:00,44.9,39.4,30.00,NE,37,9.0,26.0,81,0.00,,,0.00,0,Wunderground v.1.15,2013-04-17 02:54:00,
2013-04-16 21:59:00,44.9,39.4,30.00,NE,54,8.0,26.0,81,0.00,,,0.00,0,Wunderground v.1.15,2013-04-17 02:59:00,
2013-04-16 22:06:00,44.8,39.3,30.00,NE,48,9.0,26.0,81,0.00,,,0.00,0,Wunderground v.1.15,2013-04-17 03:06:00,
2013-04-16 22:12:00,44.8,39.0,29.99,NE,50,10.0,26.0,80,0.00,,,0.00,0,Wunderground v.1.15,2013-04-17 03:12:00,
2013-04-16 22:18:00,44.9,39.4,30.00,ENE,58,10.0,26.0,81,0.00,,,0.00,0,Wunderground v.1.15,2013-04-17 03:18:00,
2013-04-16 22:23:00,44.9,39.4,30.00,NE,50,10.0,26.0,81,0.00,,,0.00,0,Wunderground v.1.15,2013-04-17 03:23:00,
2013-04-16 22:29:00,44.8,39.6,30.00,NE,50,10.0,26.0,82,0.00,,,0.00,0,Wunderground v.1.15,2013-04-17 03:29:00,
2013-04-16 22:36:00,44.6,39.8,30.00,East,100,9.0,9.0,83,0.00,,,0.00,0,Wunderground v.1.15,2013-04-17 03:36:00,
2013-04-16 22:41:00,44.5,40.0,30.00,ENE,60,10.0,26.0,84,0.00,,,0.00,0,Wunderground v.1.15,2013-04-17 03:41:00,
2013-04-16 22:47:00,44.3,39.8,30.00,ENE,64,10.0,26.0,84,0.00,,,0.00,0,Wunderground v.1.15,2013-04-17 03:47:00,
2013-04-16 22:54:00,44.3,40.1,30.00,ENE,68,7.0,26.0,85,0.00,,,0.00,0,Wunderground v.1.15,2013-04-17 03:54:00,
2013-04-16 23:00:00,44.2,40.0,30.00,NE,55,6.0,26.0,85,0.00,,,0.01,0,Wunderground v.1.15,2013-04-17 04:00:00,
2013-04-16 23:01:00,44.2,40.0,30.00,NE,36,6.0,26.0,85,0.00,,,0.01,0,Wunderground v.1.15,2013-04-17 04:01:00,
2013-04-16 23:08:00,44.2,40.0,30.00,NE,50,7.0,26.0,85,0.00,,,0.01,0,Wunderground v.1.15,2013-04-17 04:08:00,
2013-04-16 23:11:00,44.2,40.3,29.99,ENE,60,8.0,26.0,86,0.00,,,0.01,0,Wunderground v.1.15,2013-04-17 04:11:00,
2013-04-16 23:14:00,44.2,40.3,29.99,ENE,59,8.0,26.0,86,0.00,,,0.01,0,Wunderground v.1.15,2013-04-17 04:14:00,
2013-04-16 23:19:00,44.2,40.3,29.99,ENE,64,7.0,26.0,86,0.00,,,0.01,0,Wunderground v.1.15,2013-04-17 04:19:00,
2013-04-16 23:21:00,44.2,40.3,29.99,NE,54,7.0,26.0,86,0.00,,,0.01,0,Wunderground v.1.15,2013-04-17 04:21:00,
2013-04-16 23:28:00,44.1,40.2,29.99,NE,53,7.0,26.0,86,0.00,,,0.01,0,Wunderground v.1.15,2013-04-17 04:28:00,
2013-04-16 23:34:00,44.1,40.2,29.99,NE,56,7.0,26.0,86,0.00,,,0.01,0,Wunderground v.1.15,2013-04-17 04:34:00,
2013-04-16 23:40:00,44.1,40.2,29.99,ENE,69,7.0,26.0,86,0.00,,,0.01,0,Wunderground v.1.15,2013-04-17 04:40:00,
2013-04-16 23:45:00,44.1,40.2,29.98,NE,51,7.0,7.0,86,0.00,,,0.01,0,Wunderground v.1.15,2013-04-17 04:45:00,
2013-04-16 23:52:00,44.1,40.2,29.97,NE,46,8.0,26.0,86,0.00,,,0.01,0,Wunderground v.1.15,2013-04-17 04:52:00,
2013-04-16 23:58:00,44.1,40.2,29.97,NE,41,8.0,26.0,86,0.00,,,0.01,0,Wunderground v.1.15,2013-04-17 04:58:00,